Time;durP1;ratioP1;P1;durP2;ratioP2;P2;SDS_P1;SDS_P2;PMS_P1;PMS_P2;Temp;Humidity;BMP_temperature;BMP_pressure;BME280_temperature;BME280_humidity;BME280_pressure;Samples;Min_cycle;Max_cycle;Signal;HPM_P1;HPM_P2
2023/04/05 00:00:54;;;;;;;10.15;4.38;;;;;;;;;;5015967;28;20056;-75
2023/04/05 00:03:20;;;;;;;7.50;3.95;;;;;;;;;;5012944;28;20759;-75
2023/04/05 00:05:48;;;;;;;6.90;4.00;;;;;;;;;;4998414;28;20053;-75
2023/04/05 00:08:22;;;;;;;6.93;4.13;;;;;;;;;;5018328;28;20047;-74
2023/04/05 00:10:49;;;;;;;7.05;4.20;;;;;;;;;;5029606;28;20064;-74
2023/04/05 00:13:15;;;;;;;5.80;3.58;;;;;;;;;;5025470;28;20051;-75
2023/04/05 00:15:41;;;;;;;5.55;3.70;;;;;;;;;;5014397;28;20094;-75
2023/04/05 00:18:14;;;;;;;10.10;3.78;;;;;;;;;;5013719;28;20061;-75
2023/04/05 00:20:40;;;;;;;6.32;3.70;;;;;;;;;;5013940;28;20053;-75
2023/04/05 00:23:09;;;;;;;6.25;3.55;;;;;;;;;;5016054;28;20041;-75
2023/04/05 00:25:35;;;;;;;6.78;3.85;;;;;;;;;;5015285;28;20049;-75
2023/04/05 00:28:01;;;;;;;9.93;3.92;;;;;;;;;;5009839;28;20060;-75
2023/04/05 00:30:28;;;;;;;7.57;4.00;;;;;;;;;;5007701;28;20076;-75
2023/04/05 00:32:54;;;;;;;7.63;3.50;;;;;;;;;;4999651;28;20056;-75
2023/04/05 00:35:20;;;;;;;5.53;3.60;;;;;;;;;;5008530;28;22279;-75
2023/04/05 00:37:46;;;;;;;7.15;4.20;;;;;;;;;;5001371;28;20070;-75
2023/04/05 00:40:12;;;;;;;6.47;3.20;;;;;;;;;;5014971;28;20128;-75
2023/04/05 00:42:38;;;;;;;6.50;3.25;;;;;;;;;;5014655;28;20041;-75
2023/04/05 00:45:04;;;;;;;5.63;3.03;;;;;;;;;;5006145;28;20049;-75
2023/04/05 00:47:30;;;;;;;5.32;3.30;;;;;;;;;;5008426;28;20128;-75
2023/04/05 00:49:57;;;;;;;6.57;3.15;;;;;;;;;;5000438;28;20049;-75
2023/04/05 00:52:23;;;;;;;7.22;3.65;;;;;;;;;;4999793;28;20034;-75
2023/04/05 00:54:50;;;;;;;5.18;3.20;;;;;;;;;;5002640;28;20107;-75
2023/04/05 00:57:17;;;;;;;5.80;3.30;;;;;;;;;;5013923;28;20095;-75
2023/04/05 00:59:43;;;;;;;13.48;3.90;;;;;;;;;;5017846;28;20045;-75
2023/04/05 01:02:18;;;;;;;6.05;3.28;;;;;;;;;;5005464;28;20060;-75
2023/04/05 01:04:48;;;;;;;8.13;3.45;;;;;;;;;;5011593;28;20041;-75
2023/04/05 01:07:15;;;;;;;6.88;3.42;;;;;;;;;;5014426;28;20053;-75
2023/04/05 01:09:58;;;;;;;6.13;3.33;;;;;;;;;;5011116;28;20139;-75
2023/04/05 01:12:31;;;;;;;7.35;4.30;;;;;;;;;;5013893;28;20052;-74
2023/04/05 01:14:57;;;;;;;7.28;3.50;;;;;;;;;;5015919;28;20056;-75
2023/04/05 01:17:26;;;;;;;10.68;3.72;;;;;;;;;;4995263;28;20061;-75
2023/04/05 01:19:58;;;;;;;6.57;3.35;;;;;;;;;;5012517;28;20084;-75
2023/04/05 01:22:30;;;;;;;5.13;3.47;;;;;;;;;;5013387;28;20053;-75
2023/04/05 01:25:18;;;;;;;5.60;3.58;;;;;;;;;;5008365;28;20072;-75
2023/04/05 01:27:44;;;;;;;4.55;3.38;;;;;;;;;;5011136;28;20491;-75
2023/04/05 01:30:14;;;;;;;8.13;3.35;;;;;;;;;;5009652;28;20041;-75
2023/04/05 01:32:48;;;;;;;8.18;3.75;;;;;;;;;;5010955;28;20075;-75
2023/04/05 01:35:24;;;;;;;6.85;4.03;;;;;;;;;;5008884;28;20045;-75
2023/04/05 01:37:55;;;;;;;8.52;4.43;;;;;;;;;;5009632;28;20044;-75
2023/04/05 01:40:22;;;;;;;7.40;3.58;;;;;;;;;;5010292;28;20041;-75
2023/04/05 01:42:48;;;;;;;6.70;4.25;;;;;;;;;;5012910;28;20116;-75
2023/04/05 01:45:14;;;;;;;7.80;4.05;;;;;;;;;;5014631;28;20213;-75
2023/04/05 01:47:40;;;;;;;6.68;3.92;;;;;;;;;;5018686;28;20045;-75
2023/04/05 01:50:07;;;;;;;7.03;4.15;;;;;;;;;;5015622;28;20045;-75
2023/04/05 01:52:33;;;;;;;8.48;3.88;;;;;;;;;;5020911;28;20072;-75
2023/04/05 01:54:59;;;;;;;8.43;4.50;;;;;;;;;;5020439;28;20049;-74
2023/04/05 01:57:25;;;;;;;6.88;4.18;;;;;;;;;;5021527;28;20060;-75
2023/04/05 01:59:51;;;;;;;5.90;4.03;;;;;;;;;;5015893;28;20053;-74
2023/04/05 02:02:17;;;;;;;7.03;4.00;;;;;;;;;;5020438;28;20055;-75
2023/04/05 02:04:43;;;;;;;6.65;4.15;;;;;;;;;;5003703;28;20254;-75
2023/04/05 02:07:09;;;;;;;6.82;4.25;;;;;;;;;;5014308;28;20056;-75
2023/04/05 02:09:35;;;;;;;7.30;4.07;;;;;;;;;;5017140;28;20060;-75
2023/04/05 02:12:01;;;;;;;6.57;3.85;;;;;;;;;;5016793;28;20401;-75
2023/04/05 02:14:28;;;;;;;7.32;3.80;;;;;;;;;;5017890;28;20235;-75
2023/04/05 02:16:55;;;;;;;6.90;4.38;;;;;;;;;;5018221;28;20053;-75
2023/04/05 02:19:22;;;;;;;7.70;4.47;;;;;;;;;;5005350;28;20131;-75
2023/04/05 02:21:52;;;;;;;9.27;4.57;;;;;;;;;;5018620;28;22210;-75
2023/04/05 02:24:18;;;;;;;8.25;4.97;;;;;;;;;;5016298;28;20049;-75
2023/04/05 02:26:45;;;;;;;6.90;4.70;;;;;;;;;;5015872;28;20136;-75
2023/04/05 02:29:11;;;;;;;8.15;4.68;;;;;;;;;;4997766;28;20053;-75
2023/04/05 02:31:37;;;;;;;9.20;4.85;;;;;;;;;;5013246;28;20132;-75
2023/04/05 02:34:04;;;;;;;10.82;5.15;;;;;;;;;;5010451;28;22645;-76
2023/04/05 02:36:30;;;;;;;10.95;5.03;;;;;;;;;;4996304;28;20048;-75
2023/04/05 02:38:56;;;;;;;6.22;5.10;;;;;;;;;;5003968;28;20076;-75
2023/04/05 02:41:23;;;;;;;10.07;6.07;;;;;;;;;;5012434;28;20079;-75
2023/04/05 02:43:50;;;;;;;10.20;6.45;;;;;;;;;;5010365;28;20060;-75
2023/04/05 02:46:16;;;;;;;12.27;5.75;;;;;;;;;;5003775;28;20056;-75
2023/04/05 02:48:42;;;;;;;16.33;6.25;;;;;;;;;;5012058;28;20123;-75
2023/04/05 02:51:08;;;;;;;12.77;7.03;;;;;;;;;;5000117;28;20041;-75
2023/04/05 02:53:34;;;;;;;14.48;7.00;;;;;;;;;;5006795;28;20537;-75
2023/04/05 02:56:00;;;;;;;11.00;7.22;;;;;;;;;;5002860;28;20056;-75
2023/04/05 02:58:27;;;;;;;10.88;7.43;;;;;;;;;;5005005;28;20408;-75
2023/04/05 03:00:53;;;;;;;12.73;7.00;;;;;;;;;;4999419;28;20049;-75
2023/04/05 03:03:20;;;;;;;14.60;7.00;;;;;;;;;;5000801;28;20056;-75
2023/04/05 03:05:47;;;;;;;16.58;7.35;;;;;;;;;;5000068;28;20045;-75
2023/04/05 03:08:22;;;;;;;12.32;7.35;;;;;;;;;;4982354;28;20049;-75
2023/04/05 03:10:51;;;;;;;10.98;7.18;;;;;;;;;;5011853;28;20178;-75
2023/04/05 03:13:17;;;;;;;12.80;7.53;;;;;;;;;;5008867;28;20072;-75
2023/04/05 03:15:43;;;;;;;12.15;7.95;;;;;;;;;;5012218;28;20111;-75
2023/04/05 03:18:10;;;;;;;15.70;8.68;;;;;;;;;;5009523;28;20076;-76
2023/04/05 03:20:40;;;;;;;12.10;7.82;;;;;;;;;;5010435;28;20049;-74
2023/04/05 03:23:07;;;;;;;10.43;7.65;;;;;;;;;;5011239;28;20041;-74
2023/04/05 03:25:37;;;;;;;11.80;7.63;;;;;;;;;;5010132;28;21019;-73
2023/04/05 03:28:07;;;;;;;15.23;8.40;;;;;;;;;;5007110;28;20777;-74
2023/04/05 03:30:34;;;;;;;14.07;7.82;;;;;;;;;;5011680;28;20718;-73
2023/04/05 03:33:00;;;;;;;13.93;8.77;;;;;;;;;;5014560;28;20033;-73
2023/04/05 03:35:28;;;;;;;14.45;8.57;;;;;;;;;;5009309;28;20046;-74
2023/04/05 03:37:54;;;;;;;13.32;8.25;;;;;;;;;;5015771;28;20105;-73
2023/04/05 03:40:20;;;;;;;14.40;9.07;;;;;;;;;;5019433;28;20041;-74
2023/04/05 03:42:46;;;;;;;12.32;8.30;;;;;;;;;;5021527;28;20175;-74
2023/04/05 03:45:12;;;;;;;13.73;8.52;;;;;;;;;;5011808;28;20048;-75
2023/04/05 03:47:38;;;;;;;13.80;8.90;;;;;;;;;;5011430;28;20055;-74
2023/04/05 03:50:05;;;;;;;18.42;9.48;;;;;;;;;;5015207;28;20132;-75
2023/04/05 03:52:31;;;;;;;18.08;9.95;;;;;;;;;;5009228;28;20179;-75
2023/04/05 03:54:57;;;;;;;15.32;10.30;;;;;;;;;;5010449;28;20041;-75
2023/04/05 03:57:23;;;;;;;17.05;10.10;;;;;;;;;;4991939;28;20469;-75
2023/04/05 03:59:49;;;;;;;16.08;9.43;;;;;;;;;;5009236;28;20076;-75
2023/04/05 04:02:15;;;;;;;16.63;9.95;;;;;;;;;;5003863;28;20053;-74
2023/04/05 04:04:41;;;;;;;13.30;8.82;;;;;;;;;;4980233;28;20052;-75
2023/04/05 04:07:08;;;;;;;16.55;9.57;;;;;;;;;;5008245;28;20088;-74
2023/04/05 04:09:34;;;;;;;15.27;9.30;;;;;;;;;;4995737;28;20056;-75
2023/04/05 04:12:00;;;;;;;15.02;8.93;;;;;;;;;;5008176;28;20051;-75
2023/04/05 04:14:26;;;;;;;16.17;9.68;;;;;;;;;;5009850;28;20630;-75
2023/04/05 04:16:52;;;;;;;15.98;9.63;;;;;;;;;;5010355;28;20132;-76
2023/04/05 04:19:18;;;;;;;19.85;12.90;;;;;;;;;;5000037;28;20056;-75
2023/04/05 04:21:44;;;;;;;14.45;10.75;;;;;;;;;;5008692;28;20041;-75
2023/04/05 04:24:17;;;;;;;14.55;9.32;;;;;;;;;;4991081;28;20048;-74
2023/04/05 04:26:44;;;;;;;14.57;9.65;;;;;;;;;;5028345;28;20141;-77
2023/04/05 04:29:11;;;;;;;17.38;10.82;;;;;;;;;;5017899;28;22036;-78
2023/04/05 04:31:38;;;;;;;17.85;9.80;;;;;;;;;;5012544;28;20123;-77
2023/04/05 04:34:05;;;;;;;16.73;9.95;;;;;;;;;;5008074;28;20049;-78
2023/04/05 04:36:38;;;;;;;15.32;10.50;;;;;;;;;;5007523;28;20363;-77
2023/04/05 04:39:06;;;;;;;15.85;10.07;;;;;;;;;;5005621;28;20078;-77
2023/04/05 04:41:34;;;;;;;16.92;11.60;;;;;;;;;;5006752;28;20143;-77
2023/04/05 04:44:04;;;;;;;16.55;10.02;;;;;;;;;;5006308;28;22347;-78
2023/04/05 04:46:41;;;;;;;16.38;10.55;;;;;;;;;;5007301;28;20049;-78
2023/04/05 04:49:08;;;;;;;14.75;9.80;;;;;;;;;;5010215;28;20049;-78
2023/04/05 04:51:35;;;;;;;15.18;9.77;;;;;;;;;;5019783;28;20132;-78
2023/04/05 04:54:01;;;;;;;17.38;10.07;;;;;;;;;;5024323;28;20045;-78
2023/04/05 04:56:27;;;;;;;12.82;10.27;;;;;;;;;;4999742;28;20048;-77
2023/04/05 04:58:55;;;;;;;14.63;9.50;;;;;;;;;;5017655;28;20431;-77
2023/04/05 05:01:23;;;;;;;15.95;9.88;;;;;;;;;;5014707;28;20734;-77
2023/04/05 05:03:50;;;;;;;12.55;9.23;;;;;;;;;;5012631;28;20056;-78
2023/04/05 05:06:16;;;;;;;16.50;10.38;;;;;;;;;;4992232;28;20059;-77
2023/04/05 05:08:42;;;;;;;16.27;10.00;;;;;;;;;;5013007;28;20100;-78
2023/04/05 05:11:10;;;;;;;21.15;11.27;;;;;;;;;;5013613;28;20052;-77
2023/04/05 05:13:36;;;;;;;15.75;9.65;;;;;;;;;;5014554;28;20045;-78
2023/04/05 05:16:03;;;;;;;14.80;10.25;;;;;;;;;;4980291;28;20029;-78
2023/04/05 05:18:29;;;;;;;21.50;10.50;;;;;;;;;;5016986;28;20061;-78
2023/04/05 05:20:55;;;;;;;17.95;10.25;;;;;;;;;;5004525;28;20105;-79
2023/04/05 05:23:21;;;;;;;15.57;9.90;;;;;;;;;;5013882;28;20052;-79
2023/04/05 05:25:47;;;;;;;16.48;10.15;;;;;;;;;;5015023;28;21566;-78
2023/04/05 05:28:14;;;;;;;15.73;10.18;;;;;;;;;;5015636;28;20041;-79
2023/04/05 05:30:40;;;;;;;14.77;10.07;;;;;;;;;;5013588;28;20052;-79
2023/04/05 05:33:06;;;;;;;14.82;10.05;;;;;;;;;;5015320;28;20404;-79
2023/04/05 05:35:32;;;;;;;20.35;10.02;;;;;;;;;;5014597;28;20045;-79
2023/04/05 05:37:58;;;;;;;14.50;10.18;;;;;;;;;;5014028;28;20876;-78
2023/04/05 05:40:25;;;;;;;16.15;9.93;;;;;;;;;;5011716;28;20526;-78
2023/04/05 05:42:51;;;;;;;14.20;9.35;;;;;;;;;;5016409;28;20080;-79
2023/04/05 05:45:17;;;;;;;15.57;9.70;;;;;;;;;;5016122;28;20057;-78
2023/04/05 05:47:44;;;;;;;15.05;9.05;;;;;;;;;;5005374;28;20156;-76
2023/04/05 05:50:10;;;;;;;13.90;9.00;;;;;;;;;;4994830;28;20190;-79
2023/04/05 05:52:36;;;;;;;13.57;9.13;;;;;;;;;;5005238;28;20044;-77
2023/04/05 05:55:03;;;;;;;14.20;9.27;;;;;;;;;;5014327;28;20595;-77
2023/04/05 05:57:29;;;;;;;11.85;8.43;;;;;;;;;;5010872;28;20060;-75
2023/04/05 05:59:55;;;;;;;16.40;9.38;;;;;;;;;;5017041;28;20037;-75
2023/04/05 06:02:21;;;;;;;14.15;8.85;;;;;;;;;;5014938;28;20202;-75
2023/04/05 06:04:48;;;;;;;16.33;9.05;;;;;;;;;;5014612;28;20049;-76
2023/04/05 06:07:14;;;;;;;13.38;8.27;;;;;;;;;;5012533;28;20053;-75
2023/04/05 06:09:40;;;;;;;15.95;8.70;;;;;;;;;;5009663;28;20638;-72
2023/04/05 06:12:07;;;;;;;12.02;8.27;;;;;;;;;;4992995;28;20792;-71
2023/04/05 06:14:33;;;;;;;12.60;8.48;;;;;;;;;;5011041;28;20075;-71
2023/04/05 06:16:59;;;;;;;12.15;7.93;;;;;;;;;;5012177;28;20385;-72
2023/04/05 06:19:25;;;;;;;12.68;8.25;;;;;;;;;;5012684;28;20045;-71
2023/04/05 06:21:51;;;;;;;16.10;9.52;;;;;;;;;;5001862;28;20048;-71
2023/04/05 06:24:17;;;;;;;14.23;8.38;;;;;;;;;;5014369;28;20049;-71
2023/04/05 06:26:44;;;;;;;11.32;7.28;;;;;;;;;;5018066;28;20045;-71
2023/04/05 06:29:10;;;;;;;10.43;6.82;;;;;;;;;;5016380;28;20159;-71
2023/04/05 06:31:37;;;;;;;10.70;7.38;;;;;;;;;;5015371;28;20052;-71
2023/04/05 06:34:03;;;;;;;14.50;7.38;;;;;;;;;;5023576;28;20547;-71
2023/04/05 06:36:32;;;;;;;10.73;7.43;;;;;;;;;;5017606;28;20037;-72
2023/04/05 06:38:59;;;;;;;11.90;8.07;;;;;;;;;;5020247;28;20617;-71
2023/04/05 06:41:26;;;;;;;15.93;7.88;;;;;;;;;;5018747;28;20509;-71
2023/04/05 06:43:52;;;;;;;10.95;6.88;;;;;;;;;;5018020;28;20033;-71
2023/04/05 06:46:18;;;;;;;8.88;6.32;;;;;;;;;;5017713;28;20052;-71
2023/04/05 06:48:46;;;;;;;9.57;6.38;;;;;;;;;;5013819;28;20179;-71
2023/04/05 06:51:12;;;;;;;11.13;5.95;;;;;;;;;;5011009;28;20076;-71
2023/04/05 06:53:38;;;;;;;9.38;6.05;;;;;;;;;;5014551;28;20103;-71
2023/04/05 06:56:05;;;;;;;9.23;5.32;;;;;;;;;;5012596;28;20114;-71
2023/04/05 06:58:31;;;;;;;13.23;6.22;;;;;;;;;;5019837;28;20147;-71
2023/04/05 07:00:57;;;;;;;14.10;6.70;;;;;;;;;;5016906;28;20037;-71
2023/04/05 07:03:23;;;;;;;11.93;5.85;;;;;;;;;;5013156;28;20038;-71
2023/04/05 07:05:50;;;;;;;9.57;5.97;;;;;;;;;;5014845;28;20033;-71
2023/04/05 07:08:17;;;;;;;8.70;5.07;;;;;;;;;;5018388;28;20052;-71
2023/04/05 07:10:43;;;;;;;7.78;5.00;;;;;;;;;;5012499;28;20052;-71
2023/04/05 07:13:10;;;;;;;8.85;5.90;;;;;;;;;;5015225;28;20156;-71
2023/04/05 07:15:36;;;;;;;14.00;6.07;;;;;;;;;;5013299;28;20660;-71
2023/04/05 07:18:02;;;;;;;8.15;5.32;;;;;;;;;;5009358;28;20053;-71
2023/04/05 07:20:28;;;;;;;6.93;5.13;;;;;;;;;;5012919;28;20057;-71
2023/04/05 07:22:54;;;;;;;9.32;5.53;;;;;;;;;;5013934;28;20412;-72
2023/04/05 07:25:20;;;;;;;12.07;4.82;;;;;;;;;;5015085;28;20113;-71
2023/04/05 07:27:46;;;;;;;12.50;5.32;;;;;;;;;;5015086;28;20546;-71
2023/04/05 07:30:12;;;;;;;9.48;5.88;;;;;;;;;;5010460;28;20041;-71
2023/04/05 07:32:38;;;;;;;8.40;5.07;;;;;;;;;;5012401;28;21950;-71
2023/04/05 07:35:05;;;;;;;6.18;4.63;;;;;;;;;;5007400;28;20678;-71
2023/04/05 07:37:31;;;;;;;7.57;4.43;;;;;;;;;;5011771;28;20037;-71
2023/04/05 07:39:57;;;;;;;7.80;5.07;;;;;;;;;;5012919;28;20599;-71
2023/04/05 07:42:24;;;;;;;9.50;4.80;;;;;;;;;;5015878;28;20136;-70
2023/04/05 07:44:50;;;;;;;8.60;5.30;;;;;;;;;;5012822;28;20044;-71
2023/04/05 07:47:16;;;;;;;9.82;4.88;;;;;;;;;;5012706;28;20051;-70
2023/04/05 07:49:43;;;;;;;10.73;4.90;;;;;;;;;;5012863;28;20110;-71
2023/04/05 07:52:09;;;;;;;7.43;4.13;;;;;;;;;;5010933;28;20761;-70
2023/04/05 07:54:38;;;;;;;6.50;4.82;;;;;;;;;;5012962;28;20095;-70
2023/04/05 07:57:06;;;;;;;9.57;5.38;;;;;;;;;;5011944;28;20056;-70
2023/04/05 07:59:32;;;;;;;11.73;5.30;;;;;;;;;;5013466;28;20495;-70
2023/04/05 08:01:58;;;;;;;9.75;4.78;;;;;;;;;;5012638;28;20079;-70
2023/04/05 08:04:25;;;;;;;6.75;4.80;;;;;;;;;;5012328;28;20052;-70
2023/04/05 08:06:51;;;;;;;11.82;4.35;;;;;;;;;;5013990;28;20183;-70
2023/04/05 08:09:17;;;;;;;12.43;6.15;;;;;;;;;;5012375;28;20061;-69
2023/04/05 08:11:43;;;;;;;10.50;4.97;;;;;;;;;;5016029;28;20128;-70
2023/04/05 08:14:10;;;;;;;10.23;5.43;;;;;;;;;;5012433;28;20056;-70
2023/04/05 08:27:02;;;;;;;8.48;5.55;;;;;;;;;;4929224;28;20061;-69
2023/04/05 08:29:28;;;;;;;7.75;5.18;;;;;;;;;;5404111;23;20067;-70
2023/04/05 08:35:06;;;;;;;9.20;5.00;;;;;;;;;;5378318;23;20465;-70
2023/04/05 08:37:35;;;;;;;8.77;5.20;;;;;;;;;;4909674;28;21529;-70
2023/04/05 08:40:02;;;;;;;9.98;5.18;;;;;;;;;;4888170;28;20042;-70
2023/04/05 08:42:36;;;;;;;10.60;5.53;;;;;;;;;;4925366;28;20129;-70
2023/04/05 08:45:08;;;;;;;9.25;4.70;;;;;;;;;;4925048;28;20751;-70
2023/04/05 08:47:36;;;;;;;7.38;4.97;;;;;;;;;;4925262;28;20067;-70
2023/04/05 08:50:03;;;;;;;10.70;5.95;;;;;;;;;;4926155;28;20094;-70
2023/04/05 08:52:30;;;;;;;6.93;4.75;;;;;;;;;;4903293;28;20126;-70
2023/04/05 08:54:56;;;;;;;9.15;5.57;;;;;;;;;;4909855;28;20043;-70
2023/04/05 08:57:26;;;;;;;9.60;5.32;;;;;;;;;;4921970;28;20499;-70
2023/04/05 08:59:52;;;;;;;9.10;5.13;;;;;;;;;;4924134;28;20570;-70
2023/04/05 09:02:19;;;;;;;8.02;5.00;;;;;;;;;;4926297;28;20054;-70
2023/04/05 09:04:47;;;;;;;8.88;5.00;;;;;;;;;;4906034;29;20047;-69
2023/04/05 09:07:14;;;;;;;9.43;5.28;;;;;;;;;;4910333;28;20051;-70
2023/04/05 09:09:43;;;;;;;7.78;5.15;;;;;;;;;;4910096;29;20043;-69
2023/04/05 09:12:10;;;;;;;11.77;5.43;;;;;;;;;;4908920;28;20043;-70
2023/04/05 09:14:38;;;;;;;7.03;5.10;;;;;;;;;;4923197;28;20082;-70
2023/04/05 09:17:04;;;;;;;6.80;4.50;;;;;;;;;;4924472;28;20636;-69
2023/04/05 09:19:30;;;;;;;6.60;4.75;;;;;;;;;;4909289;28;20097;-68
2023/04/05 09:22:00;;;;;;;10.43;5.63;;;;;;;;;;4921055;28;20135;-70
2023/04/05 09:24:45;;;;;;;6.43;5.05;;;;;;;;;;4903037;28;20078;-70
2023/04/05 09:27:18;;;;;;;8.57;5.07;;;;;;;;;;4922753;28;20082;-70
2023/04/05 09:29:49;;;;;;;7.05;4.40;;;;;;;;;;4921599;28;21874;-70
2023/04/05 09:32:17;;;;;;;8.05;4.43;;;;;;;;;;4917739;28;20051;-70
2023/04/05 09:34:43;;;;;;;6.97;4.68;;;;;;;;;;4923032;28;20126;-70
2023/04/05 09:37:15;;;;;;;8.93;4.47;;;;;;;;;;4922341;28;20093;-70
2023/04/05 09:39:42;;;;;;;5.90;4.88;;;;;;;;;;4918036;28;20661;-70
2023/04/05 09:42:10;;;;;;;7.32;4.40;;;;;;;;;;4921628;28;20051;-70
2023/04/05 09:45:03;;;;;;;6.85;4.38;;;;;;;;;;4902809;29;20615;-71
2023/04/05 09:47:31;;;;;;;10.50;4.70;;;;;;;;;;4922731;28;20067;-71
2023/04/05 09:50:01;;;;;;;6.53;4.43;;;;;;;;;;4924003;28;20408;-70
2023/04/05 09:52:30;;;;;;;6.70;4.20;;;;;;;;;;4907630;29;20082;-70
2023/04/05 09:54:57;;;;;;;7.45;4.00;;;;;;;;;;4904278;28;20088;-70
2023/04/05 09:57:28;;;;;;;6.65;4.55;;;;;;;;;;4924102;28;20043;-70
2023/04/05 09:59:54;;;;;;;6.55;4.18;;;;;;;;;;4923305;28;20126;-71
2023/04/05 10:02:24;;;;;;;7.55;4.30;;;;;;;;;;4922589;28;20051;-70
2023/04/05 10:04:50;;;;;;;5.10;3.78;;;;;;;;;;4927772;28;20077;-70
2023/04/05 10:07:17;;;;;;;11.65;4.57;;;;;;;;;;4892920;28;20043;-70
2023/04/05 10:09:44;;;;;;;7.13;4.60;;;;;;;;;;4909191;28;20376;-71
2023/04/05 10:12:12;;;;;;;6.30;3.40;;;;;;;;;;4908318;29;20058;-70
2023/04/05 10:14:38;;;;;;;6.35;3.83;;;;;;;;;;4908277;28;20047;-71
2023/04/05 10:17:08;;;;;;;5.25;3.35;;;;;;;;;;4926405;28;20792;-71
2023/04/05 10:19:48;;;;;;;5.68;3.42;;;;;;;;;;4906561;28;20138;-71
2023/04/05 10:22:17;;;;;;;5.90;3.40;;;;;;;;;;4906831;28;20064;-70
2023/04/05 10:24:51;;;;;;;5.72;3.53;;;;;;;;;;4906232;28;20055;-70
2023/04/05 10:27:21;;;;;;;6.72;3.47;;;;;;;;;;4905987;28;20051;-70
2023/04/05 10:29:56;;;;;;;9.10;3.63;;;;;;;;;;4909727;28;20056;-70
2023/04/05 10:32:35;;;;;;;4.03;3.10;;;;;;;;;;4905975;28;20055;-69
2023/04/05 10:35:07;;;;;;;7.18;3.90;;;;;;;;;;4904688;28;20197;-70
2023/04/05 10:37:37;;;;;;;5.28;3.65;;;;;;;;;;4906589;28;20051;-70
2023/04/05 10:40:04;;;;;;;6.88;3.70;;;;;;;;;;4926160;28;20570;-70
2023/04/05 10:42:56;;;;;;;5.50;3.53;;;;;;;;;;4922626;28;20094;-70
2023/04/05 10:45:23;;;;;;;7.07;3.92;;;;;;;;;;4922864;28;20058;-71
2023/04/05 10:48:00;;;;;;;6.70;4.35;;;;;;;;;;4929495;28;20055;-70
2023/04/05 10:50:27;;;;;;;7.20;3.88;;;;;;;;;;4909212;28;20043;-70
2023/04/05 10:52:55;;;;;;;7.72;3.95;;;;;;;;;;4910204;28;20047;-70
2023/04/05 10:55:21;;;;;;;6.65;4.40;;;;;;;;;;4931639;28;20751;-71
2023/04/05 10:57:48;;;;;;;6.50;4.63;;;;;;;;;;4927536;28;20047;-71
2023/04/05 11:00:15;;;;;;;7.13;3.95;;;;;;;;;;4922299;28;20638;-70
2023/04/05 11:02:41;;;;;;;7.20;4.13;;;;;;;;;;4892160;28;20051;-71
2023/04/05 11:05:27;;;;;;;7.15;4.40;;;;;;;;;;4927529;28;20178;-71
2023/04/05 11:07:55;;;;;;;8.65;4.70;;;;;;;;;;4909456;28;20043;-71
2023/04/05 11:10:22;;;;;;;5.80;4.18;;;;;;;;;;4924025;28;20727;-71
2023/04/05 11:12:48;;;;;;;7.57;4.88;;;;;;;;;;4907063;29;20059;-70
2023/04/05 11:15:26;;;;;;;9.32;4.32;;;;;;;;;;4908968;28;20035;-70
2023/04/05 11:18:08;;;;;;;4.85;3.55;;;;;;;;;;4910002;28;20478;-70
2023/04/05 11:20:40;;;;;;;5.65;4.00;;;;;;;;;;4913122;28;20758;-70
2023/04/05 11:23:06;;;;;;;5.95;3.63;;;;;;;;;;4913781;28;20101;-71
2023/04/05 11:25:38;;;;;;;5.72;3.88;;;;;;;;;;4933151;28;20513;-71
2023/04/05 11:28:05;;;;;;;5.50;3.80;;;;;;;;;;4905967;28;20039;-71
2023/04/05 11:31:02;;;;;;;6.03;3.70;;;;;;;;;;4907004;29;20055;-71
2023/04/05 11:33:37;;;;;;;6.25;4.30;;;;;;;;;;4890895;28;20063;-71
2023/04/05 11:36:03;;;;;;;4.85;4.22;;;;;;;;;;4930887;28;20186;-70
2023/04/05 11:38:30;;;;;;;7.03;4.10;;;;;;;;;;4932564;28;20503;-71
2023/04/05 11:41:16;;;;;;;4.78;3.60;;;;;;;;;;4909683;29;20043;-71
2023/04/05 11:43:43;;;;;;;4.90;3.92;;;;;;;;;;4928963;28;20051;-71
2023/04/05 11:46:09;;;;;;;6.70;3.75;;;;;;;;;;4931859;28;20040;-70
2023/04/05 11:48:35;;;;;;;5.05;4.22;;;;;;;;;;4929880;28;20079;-70
2023/04/05 11:51:07;;;;;;;4.78;3.85;;;;;;;;;;4913559;28;20062;-70
2023/04/05 11:53:33;;;;;;;5.32;3.90;;;;;;;;;;4911355;28;20158;-72
2023/04/05 11:56:06;;;;;;;7.18;3.78;;;;;;;;;;4925451;28;20039;-71
2023/04/05 11:58:33;;;;;;;7.00;4.63;;;;;;;;;;4928617;28;20106;-71
2023/04/05 12:01:00;;;;;;;6.18;4.00;;;;;;;;;;4905244;29;20085;-70
2023/04/05 12:03:30;;;;;;;5.57;4.03;;;;;;;;;;4907344;28;20069;-71
2023/04/05 12:05:57;;;;;;;5.45;3.75;;;;;;;;;;4903493;28;20585;-71
2023/04/05 12:08:23;;;;;;;6.95;4.30;;;;;;;;;;4924907;28;20783;-70
2023/04/05 12:10:53;;;;;;;5.75;4.00;;;;;;;;;;4927191;28;20047;-71
2023/04/05 12:13:30;;;;;;;6.72;4.55;;;;;;;;;;4925412;28;20035;-71
2023/04/05 12:15:59;;;;;;;5.63;4.28;;;;;;;;;;4908488;28;20074;-71
2023/04/05 12:18:26;;;;;;;5.80;4.30;;;;;;;;;;4926306;28;20050;-71
2023/04/05 12:20:52;;;;;;;7.22;4.07;;;;;;;;;;4926279;28;20035;-71
2023/04/05 12:23:20;;;;;;;5.47;4.05;;;;;;;;;;4927347;28;20047;-71
2023/04/05 12:25:49;;;;;;;6.25;4.15;;;;;;;;;;4926372;28;20048;-71
2023/04/05 12:28:16;;;;;;;6.72;4.40;;;;;;;;;;4906447;28;20550;-71
2023/04/05 12:30:58;;;;;;;4.38;3.97;;;;;;;;;;4925034;28;20569;-71
2023/04/05 12:33:27;;;;;;;6.07;4.38;;;;;;;;;;4909598;28;20130;-71
2023/04/05 12:35:54;;;;;;;6.05;3.88;;;;;;;;;;4931462;28;20058;-70
2023/04/05 12:38:20;;;;;;;6.32;4.10;;;;;;;;;;4928211;28;20130;-70
2023/04/05 12:40:46;;;;;;;5.95;4.43;;;;;;;;;;4927959;28;20074;-71
2023/04/05 12:43:18;;;;;;;6.47;4.03;;;;;;;;;;4906608;28;20047;-71
2023/04/05 12:45:45;;;;;;;6.05;4.28;;;;;;;;;;4926232;28;20043;-72
2023/04/05 12:48:15;;;;;;;9.52;4.10;;;;;;;;;;4910982;28;20793;-72
2023/04/05 12:50:45;;;;;;;6.63;4.20;;;;;;;;;;4910564;29;20062;-71
2023/04/05 12:53:22;;;;;;;8.05;4.22;;;;;;;;;;4925032;28;20043;-76
2023/04/05 12:55:53;;;;;;;5.63;4.25;;;;;;;;;;4908369;28;20039;-76
2023/04/05 12:58:19;;;;;;;6.55;4.43;;;;;;;;;;4909797;28;20134;-86
2023/04/05 13:00:46;;;;;;;5.85;4.45;;;;;;;;;;4895141;28;20053;-75
2023/04/05 13:03:16;;;;;;;5.57;3.85;;;;;;;;;;4901586;29;20391;-75
2023/04/05 13:05:46;;;;;;;7.13;4.60;;;;;;;;;;4921494;28;20651;-80
2023/04/05 13:08:12;;;;;;;12.40;8.55;;;;;;;;;;4876471;28;20050;-75
2023/04/05 13:10:38;;;;;;;5.25;3.65;;;;;;;;;;4922376;28;20467;-74
2023/04/05 13:13:04;;;;;;;14.23;8.90;;;;;;;;;;4909751;28;20054;-74
2023/04/05 13:15:31;;;;;;;4.68;3.90;;;;;;;;;;4907785;29;20078;-73
2023/04/05 13:17:57;;;;;;;5.38;4.00;;;;;;;;;;4908654;28;20055;-73
2023/04/05 13:20:23;;;;;;;6.05;3.72;;;;;;;;;;4921761;28;20129;-73
2023/04/05 13:22:49;;;;;;;5.75;4.10;;;;;;;;;;4922281;28;20043;-75
2023/04/05 13:25:16;;;;;;;6.15;4.18;;;;;;;;;;4908643;28;20106;-74
2023/04/05 13:27:42;;;;;;;5.38;4.20;;;;;;;;;;4926185;28;20051;-73
2023/04/05 13:30:08;;;;;;;5.00;3.63;;;;;;;;;;4924365;28;20039;-75
2023/04/05 13:32:35;;;;;;;6.40;4.07;;;;;;;;;;4924307;28;20039;-74
2023/04/05 13:35:01;;;;;;;4.90;3.78;;;;;;;;;;4905306;28;20078;-75
2023/04/05 13:37:27;;;;;;;6.35;4.20;;;;;;;;;;4909144;28;20050;-75
2023/04/05 13:39:53;;;;;;;5.18;4.38;;;;;;;;;;4912319;28;20043;-74
2023/04/05 13:42:19;;;;;;;6.25;4.78;;;;;;;;;;4909561;28;20039;-75
2023/04/05 13:44:45;;;;;;;6.18;4.10;;;;;;;;;;4912577;28;20652;-74
2023/04/05 13:47:13;;;;;;;4.90;4.30;;;;;;;;;;4912275;28;20578;-74
2023/04/05 13:49:39;;;;;;;6.53;3.90;;;;;;;;;;4911323;29;20498;-74
2023/04/05 13:52:06;;;;;;;6.70;4.18;;;;;;;;;;4894902;28;20158;-74
2023/04/05 13:54:32;;;;;;;7.40;4.05;;;;;;;;;;4893603;29;20043;-75
2023/04/05 13:56:58;;;;;;;5.70;4.38;;;;;;;;;;4911061;28;20157;-74
2023/04/05 13:59:24;;;;;;;4.85;3.75;;;;;;;;;;4911254;28;20058;-74
2023/04/05 14:01:51;;;;;;;6.38;3.97;;;;;;;;;;4910014;28;20042;-73
2023/04/05 14:04:17;;;;;;;6.10;4.18;;;;;;;;;;4911737;28;20269;-74
2023/04/05 14:06:43;;;;;;;7.07;3.80;;;;;;;;;;4928117;28;20087;-74
2023/04/05 14:09:10;;;;;;;7.00;4.07;;;;;;;;;;4910271;29;20046;-74
2023/04/05 14:11:36;;;;;;;3.90;3.42;;;;;;;;;;4927434;28;20049;-74
2023/04/05 14:14:02;;;;;;;5.35;3.97;;;;;;;;;;4926290;28;20081;-74
2023/04/05 14:16:29;;;;;;;7.70;3.92;;;;;;;;;;4910737;28;20161;-74
2023/04/05 14:18:55;;;;;;;5.20;3.53;;;;;;;;;;4918810;28;20051;-74
2023/04/05 14:21:25;;;;;;;5.43;4.10;;;;;;;;;;4932989;28;20043;-74
2023/04/05 14:23:55;;;;;;;8.80;4.22;;;;;;;;;;4924627;28;20055;-73
2023/04/05 14:26:22;;;;;;;5.43;3.80;;;;;;;;;;4912268;29;20578;-73
2023/04/05 14:28:48;;;;;;;4.82;3.50;;;;;;;;;;4910664;28;20040;-74
2023/04/05 14:31:14;;;;;;;5.97;4.18;;;;;;;;;;4893578;28;20491;-74
2023/04/05 14:33:40;;;;;;;4.38;3.45;;;;;;;;;;4911114;28;20490;-74
2023/04/05 14:36:06;;;;;;;5.95;3.50;;;;;;;;;;4910237;28;20109;-74
2023/04/05 14:38:32;;;;;;;3.80;3.40;;;;;;;;;;4925738;28;20660;-74
2023/04/05 14:40:58;;;;;;;3.90;3.53;;;;;;;;;;4906337;29;20047;-74
2023/04/05 14:43:25;;;;;;;5.22;3.70;;;;;;;;;;4921103;28;20386;-74
2023/04/05 14:45:51;;;;;;;5.80;3.58;;;;;;;;;;4922720;28;20043;-74
2023/04/05 14:48:17;;;;;;;4.82;3.75;;;;;;;;;;4907515;28;20051;-74
2023/04/05 14:50:43;;;;;;;5.05;3.88;;;;;;;;;;4926022;28;20043;-74
2023/04/05 14:53:10;;;;;;;5.60;3.72;;;;;;;;;;4892207;28;20047;-74
2023/04/05 14:55:36;;;;;;;6.07;3.67;;;;;;;;;;4891161;28;20116;-74